createdAt,value
2017-01-22T00:01:07.029Z,994.46
2017-01-22T00:02:15.715Z,994.44
2017-01-22T00:03:24.398Z,994.44
2017-01-22T00:04:33.085Z,994.43
2017-01-22T00:05:41.772Z,994.44
2017-01-22T00:06:50.464Z,994.43
2017-01-22T00:07:59.149Z,994.4
2017-01-22T00:09:07.839Z,994.36
2017-01-22T00:10:16.523Z,994.34
2017-01-22T00:11:25.208Z,994.34
2017-01-22T00:12:33.890Z,994.34
2017-01-22T00:13:42.583Z,994.35
2017-01-22T00:14:51.265Z,994.32
2017-01-22T00:15:59.960Z,994.25
2017-01-22T00:17:08.647Z,994.27
2017-01-22T00:18:17.327Z,994.25
2017-01-22T00:19:26.019Z,994.22
2017-01-22T00:20:34.707Z,994.29
2017-01-22T00:21:43.395Z,994.27
2017-01-22T00:22:52.136Z,994.29
2017-01-22T00:24:00.823Z,994.32
2017-01-22T00:25:09.509Z,994.27
2017-01-22T00:26:18.191Z,994.21
2017-01-22T00:27:26.882Z,994.21
2017-01-22T00:28:35.566Z,994.2
2017-01-22T00:29:44.249Z,994.18
2017-01-22T00:30:52.933Z,994.16
2017-01-22T00:32:01.619Z,994.15
2017-01-22T00:33:10.313Z,994.12
2017-01-22T00:34:18.997Z,994.12
2017-01-22T00:35:27.685Z,994.1
2017-01-22T00:36:36.394Z,994.1
2017-01-22T00:37:45.078Z,994.07
2017-01-22T00:38:53.763Z,994.13
2017-01-22T00:40:02.448Z,994.12
2017-01-22T00:41:11.535Z,994.09
2017-01-22T00:42:20.254Z,994.06
2017-01-22T00:43:28.943Z,994.09
2017-01-22T00:44:37.629Z,994.14
2017-01-22T00:45:46.317Z,994.1
2017-01-22T00:46:55.004Z,994.15
2017-01-22T00:48:03.689Z,994.19
2017-01-22T00:49:12.369Z,994.17
2017-01-22T00:50:21.052Z,994.18
2017-01-22T00:51:29.740Z,994.21
2017-01-22T00:52:38.425Z,994.2
2017-01-22T00:53:47.112Z,994.18
2017-01-22T00:54:55.805Z,994.18
2017-01-22T00:56:04.493Z,994.15
2017-01-22T00:57:13.575Z,994.11
2017-01-22T00:58:22.261Z,994.1
2017-01-22T00:59:30.946Z,994.07
2017-01-22T01:00:39.633Z,994.07
2017-01-22T01:01:48.323Z,994.05
2017-01-22T01:02:57.008Z,994.03
2017-01-22T01:04:05.693Z,994.04
2017-01-22T01:05:14.380Z,994.03
2017-01-22T01:06:23.067Z,994
2017-01-22T01:07:31.750Z,994.03
2017-01-22T01:08:40.436Z,994.04
2017-01-22T01:09:49.130Z,994.01
2017-01-22T01:10:57.815Z,993.97
2017-01-22T01:12:06.495Z,993.94
2017-01-22T01:13:15.182Z,993.91
2017-01-22T01:14:23.865Z,993.89
2017-01-22T01:15:32.550Z,993.86
2017-01-22T01:16:41.237Z,993.82
2017-01-22T01:17:49.922Z,993.79
2017-01-22T01:18:58.605Z,993.84
2017-01-22T01:20:07.287Z,993.83
2017-01-22T01:21:15.969Z,993.85
2017-01-22T01:22:24.652Z,993.84
2017-01-22T01:23:33.337Z,993.84
2017-01-22T01:24:42.019Z,993.84
2017-01-22T01:25:50.701Z,993.86
2017-01-22T01:26:59.387Z,993.88
2017-01-22T01:28:08.074Z,993.83
2017-01-22T01:29:16.757Z,993.85
2017-01-22T01:30:25.448Z,993.8
2017-01-22T01:31:34.131Z,993.73
2017-01-22T01:32:42.818Z,993.81
2017-01-22T01:33:51.507Z,993.78
2017-01-22T01:35:00.193Z,993.76
2017-01-22T01:36:08.879Z,993.74
2017-01-22T01:37:17.564Z,993.77
2017-01-22T01:38:26.250Z,993.77
2017-01-22T01:39:35.330Z,993.82
2017-01-22T01:40:44.011Z,993.82
2017-01-22T01:41:52.695Z,993.8
2017-01-22T01:43:01.380Z,993.77
2017-01-22T01:44:10.067Z,993.79
2017-01-22T01:45:18.751Z,993.8
2017-01-22T01:46:27.437Z,993.71
2017-01-22T01:47:36.128Z,993.76
2017-01-22T01:48:44.825Z,993.77
2017-01-22T01:49:53.509Z,993.77
2017-01-22T01:51:02.187Z,993.78
2017-01-22T01:52:10.873Z,993.76
2017-01-22T01:53:19.559Z,993.79
2017-01-22T01:54:28.241Z,993.8
2017-01-22T01:55:36.925Z,993.82
2017-01-22T01:56:45.609Z,993.86
2017-01-22T01:57:54.297Z,993.85
2017-01-22T01:59:02.985Z,993.85
2017-01-22T02:00:11.669Z,993.87
2017-01-22T02:01:20.384Z,993.79
2017-01-22T02:02:29.065Z,993.75
2017-01-22T02:03:37.749Z,993.69
2017-01-22T02:04:46.435Z,993.61
2017-01-22T02:05:55.118Z,993.64
2017-01-22T02:07:03.803Z,993.57
2017-01-22T02:08:12.489Z,993.62
2017-01-22T02:09:21.167Z,993.64
2017-01-22T02:10:29.849Z,993.61
2017-01-22T02:11:38.532Z,993.68
2017-01-22T02:12:47.237Z,993.63
2017-01-22T02:13:55.920Z,993.73
2017-01-22T02:15:04.608Z,993.77
2017-01-22T02:16:13.288Z,993.74
2017-01-22T02:17:21.972Z,993.78
2017-01-22T02:18:30.658Z,993.75
2017-01-22T02:19:39.361Z,993.72
2017-01-22T02:20:48.049Z,993.7
2017-01-22T02:21:56.733Z,993.68
2017-01-22T02:23:05.421Z,993.65
2017-01-22T02:24:14.115Z,993.57
2017-01-22T02:25:22.819Z,993.59
2017-01-22T02:26:31.509Z,993.57
2017-01-22T02:27:40.194Z,993.59
2017-01-22T02:28:48.878Z,993.6
2017-01-22T02:29:57.558Z,993.66
2017-01-22T02:31:06.640Z,993.63
2017-01-22T02:32:15.325Z,993.62
2017-01-22T02:33:24.010Z,993.55
2017-01-22T02:34:32.698Z,993.55
2017-01-22T02:35:41.389Z,993.54
2017-01-22T02:36:50.081Z,993.51
2017-01-22T02:37:58.771Z,993.58
2017-01-22T02:39:07.457Z,993.58
2017-01-22T02:40:16.146Z,993.57
2017-01-22T02:41:24.834Z,993.55
2017-01-22T02:42:33.522Z,993.53
2017-01-22T02:43:42.209Z,993.56
2017-01-22T02:44:50.889Z,993.49
2017-01-22T02:45:59.578Z,993.54
2017-01-22T02:47:08.267Z,993.47
2017-01-22T02:48:16.958Z,993.45
2017-01-22T02:49:25.644Z,993.4
2017-01-22T02:50:34.331Z,993.36
2017-01-22T02:51:43.013Z,993.33
2017-01-22T02:52:51.700Z,993.3
2017-01-22T02:54:00.383Z,993.34
2017-01-22T02:55:09.075Z,993.32
2017-01-22T02:56:17.761Z,993.26
2017-01-22T02:57:26.845Z,993.25
2017-01-22T02:58:35.526Z,993.22
2017-01-22T02:59:44.215Z,993.21
2017-01-22T03:00:52.897Z,993.19
2017-01-22T03:02:01.591Z,993.21
2017-01-22T03:03:12.632Z,993.15
2017-01-22T03:04:21.333Z,993.14
2017-01-22T03:05:30.024Z,993.12
2017-01-22T03:06:38.709Z,993.11
2017-01-22T03:07:47.399Z,993.11
2017-01-22T03:08:56.459Z,993.11
2017-01-22T03:10:05.141Z,993.14
2017-01-22T03:11:13.830Z,993.09
2017-01-22T03:12:22.522Z,993.1
2017-01-22T03:13:31.207Z,993.1
2017-01-22T03:14:39.893Z,993.06
2017-01-22T03:15:48.582Z,993.02
2017-01-22T03:16:57.266Z,993
2017-01-22T03:18:05.956Z,992.95
2017-01-22T03:19:14.644Z,992.92
2017-01-22T03:20:23.377Z,992.84
2017-01-22T03:21:32.066Z,992.88
2017-01-22T03:22:40.753Z,992.88
2017-01-22T03:23:49.436Z,992.83
2017-01-22T03:24:58.122Z,992.84
2017-01-22T03:26:06.836Z,992.84
2017-01-22T03:27:15.521Z,992.83
2017-01-22T03:28:24.206Z,992.82
2017-01-22T03:29:32.890Z,992.81
2017-01-22T03:30:41.575Z,992.81
2017-01-22T03:31:50.258Z,992.8
2017-01-22T03:32:58.943Z,992.85
2017-01-22T03:34:07.635Z,992.84
2017-01-22T03:35:16.318Z,992.85
2017-01-22T03:36:25.000Z,992.86
2017-01-22T03:37:33.683Z,992.84
2017-01-22T03:38:42.367Z,992.84
2017-01-22T03:39:51.087Z,992.79
2017-01-22T03:40:59.780Z,992.8
2017-01-22T03:42:08.465Z,992.8
2017-01-22T03:43:17.153Z,992.81
2017-01-22T03:44:25.870Z,992.86
2017-01-22T03:45:34.555Z,992.85
2017-01-22T03:46:43.242Z,992.85
2017-01-22T03:47:51.930Z,992.86
2017-01-22T03:49:00.613Z,992.88
2017-01-22T03:50:09.299Z,992.87
2017-01-22T03:51:17.978Z,992.86
2017-01-22T03:52:26.658Z,992.86
2017-01-22T03:53:35.344Z,992.87
2017-01-22T03:54:44.027Z,992.82
2017-01-22T03:55:52.711Z,992.8
2017-01-22T03:57:01.393Z,992.79
2017-01-22T03:58:10.075Z,992.74
2017-01-22T03:59:18.759Z,992.71
2017-01-22T04:00:27.447Z,992.64
2017-01-22T04:01:36.131Z,992.66
2017-01-22T04:02:44.818Z,992.66
2017-01-22T04:03:53.504Z,992.65
2017-01-22T04:05:02.188Z,992.68
2017-01-22T04:06:10.878Z,992.68
2017-01-22T04:07:19.562Z,992.63
2017-01-22T04:08:28.246Z,992.63
2017-01-22T04:09:36.928Z,992.67
2017-01-22T04:10:46.011Z,992.64
2017-01-22T04:11:54.697Z,992.6
2017-01-22T04:13:03.384Z,992.64
2017-01-22T04:14:12.070Z,992.62
2017-01-22T04:15:20.755Z,992.63
2017-01-22T04:16:29.435Z,992.64
2017-01-22T04:17:38.121Z,992.62
2017-01-22T04:18:46.809Z,992.64
2017-01-22T04:19:55.491Z,992.62
2017-01-22T04:21:04.185Z,992.59
2017-01-22T04:22:12.865Z,992.59
2017-01-22T04:23:21.551Z,992.58
2017-01-22T04:24:30.235Z,992.56
2017-01-22T04:25:38.916Z,992.56
2017-01-22T04:26:47.631Z,992.56
2017-01-22T04:27:56.317Z,992.58
2017-01-22T04:29:05.009Z,992.57
2017-01-22T04:30:13.695Z,992.56
2017-01-22T04:31:22.379Z,992.56
2017-01-22T04:32:31.070Z,992.54
2017-01-22T04:33:39.802Z,992.52
2017-01-22T04:34:48.487Z,992.55
2017-01-22T04:35:57.169Z,992.58
2017-01-22T04:37:05.854Z,992.57
2017-01-22T04:38:14.538Z,992.55
2017-01-22T04:39:23.251Z,992.51
2017-01-22T04:40:33.039Z,992.52
2017-01-22T04:41:41.722Z,992.51
2017-01-22T04:42:50.408Z,992.47
2017-01-22T04:43:59.116Z,992.5
2017-01-22T04:45:07.799Z,992.4
2017-01-22T04:46:16.543Z,992.37
2017-01-22T04:47:25.227Z,992.4
2017-01-22T04:48:33.917Z,992.43
2017-01-22T04:49:42.604Z,992.36
2017-01-22T04:50:51.294Z,992.38
2017-01-22T04:52:00.051Z,992.4
2017-01-22T04:53:08.735Z,992.42
2017-01-22T04:54:17.419Z,992.44
2017-01-22T04:55:26.104Z,992.42
2017-01-22T04:56:34.790Z,992.38
2017-01-22T04:57:43.578Z,992.45
2017-01-22T04:58:52.260Z,992.38
2017-01-22T05:00:00.942Z,992.35
2017-01-22T05:01:09.629Z,992.36
2017-01-22T05:02:18.316Z,992.34
2017-01-22T05:03:27.069Z,992.33
2017-01-22T05:04:35.759Z,992.26
2017-01-22T05:05:44.446Z,992.29
2017-01-22T05:06:53.138Z,992.27
2017-01-22T05:08:01.821Z,992.29
2017-01-22T05:09:10.587Z,992.27
2017-01-22T05:10:19.272Z,992.27
2017-01-22T05:11:27.953Z,992.24
2017-01-22T05:12:36.644Z,992.21
2017-01-22T05:13:45.326Z,992.19
2017-01-22T05:14:54.067Z,992.16
2017-01-22T05:16:02.750Z,992.12
2017-01-22T05:17:11.440Z,992.09
2017-01-22T05:18:20.131Z,992.1
2017-01-22T05:19:28.812Z,992.11
2017-01-22T05:20:37.544Z,992.11
2017-01-22T05:21:46.232Z,992.14
2017-01-22T05:22:54.910Z,992.14
2017-01-22T05:24:03.590Z,992.09
2017-01-22T05:25:12.279Z,992.1
2017-01-22T05:26:21.015Z,992.12
2017-01-22T05:27:29.700Z,992.14
2017-01-22T05:28:38.390Z,992.11
2017-01-22T05:29:47.072Z,992.13
2017-01-22T05:30:55.755Z,992.13
2017-01-22T05:32:04.486Z,992.16
2017-01-22T05:33:13.169Z,992.15
2017-01-22T05:34:21.858Z,992.13
2017-01-22T05:35:30.543Z,992.11
2017-01-22T05:36:39.231Z,992.1
2017-01-22T05:37:47.987Z,992.08
2017-01-22T05:38:56.673Z,992.04
2017-01-22T05:40:05.359Z,992.02
2017-01-22T05:41:14.047Z,992.05
2017-01-22T05:42:22.729Z,992.01
2017-01-22T05:43:31.517Z,992.03
2017-01-22T05:44:40.205Z,992.02
2017-01-22T05:45:48.913Z,992.04
2017-01-22T05:46:57.594Z,992
2017-01-22T05:48:06.277Z,992
2017-01-22T05:49:15.009Z,992.02
2017-01-22T05:50:24.090Z,991.95
2017-01-22T05:51:32.778Z,991.99
2017-01-22T05:52:41.463Z,991.99
2017-01-22T05:53:50.149Z,991.96
2017-01-22T05:54:58.887Z,992.03
2017-01-22T05:56:07.969Z,992.02
2017-01-22T05:57:16.659Z,992.03
2017-01-22T05:58:25.346Z,992
2017-01-22T05:59:34.037Z,992.03
2017-01-22T06:00:42.777Z,992.07
2017-01-22T06:01:51.468Z,992.04
2017-01-22T06:03:00.149Z,992.05
2017-01-22T06:04:08.843Z,992.05
2017-01-22T06:05:17.553Z,992.06
2017-01-22T06:06:26.289Z,992.07
2017-01-22T06:07:34.977Z,992.07
2017-01-22T06:08:43.670Z,992.03
2017-01-22T06:09:52.357Z,992.04
2017-01-22T06:11:01.045Z,992.04
2017-01-22T06:13:22.253Z,992.02
2017-01-22T06:14:30.942Z,992.02
2017-01-22T06:15:39.624Z,991.98
2017-01-22T06:16:48.307Z,992
2017-01-22T06:17:57.343Z,991.96
2017-01-22T06:19:06.034Z,991.95
2017-01-22T06:20:14.717Z,991.93
2017-01-22T06:21:23.409Z,991.99
2017-01-22T06:22:32.093Z,991.96
2017-01-22T06:23:42.467Z,991.93
2017-01-22T06:24:51.155Z,991.94
2017-01-22T06:25:59.870Z,991.9
2017-01-22T06:27:08.555Z,991.88
2017-01-22T06:28:17.237Z,991.81
2017-01-22T06:29:25.923Z,991.81
2017-01-22T06:30:34.639Z,991.78
2017-01-22T06:31:43.326Z,991.77
2017-01-22T06:32:52.012Z,991.81
2017-01-22T06:34:00.697Z,991.79
2017-01-22T06:35:09.382Z,991.74
2017-01-22T06:36:18.071Z,991.75
2017-01-22T06:37:26.759Z,991.76
2017-01-22T06:38:35.445Z,991.79
2017-01-22T06:39:44.160Z,991.8
2017-01-22T06:40:52.852Z,991.76
2017-01-22T06:42:01.537Z,991.79
2017-01-22T06:43:10.219Z,991.78
2017-01-22T06:44:18.907Z,991.82
2017-01-22T06:45:27.600Z,991.81
2017-01-22T06:46:36.280Z,991.81
2017-01-22T06:47:44.993Z,991.81
2017-01-22T06:48:53.678Z,991.75
2017-01-22T06:50:02.365Z,991.72
2017-01-22T06:51:11.051Z,991.72
2017-01-22T06:52:19.745Z,991.7
2017-01-22T06:53:28.428Z,991.72
2017-01-22T06:54:37.114Z,991.79
2017-01-22T06:55:45.803Z,991.79
2017-01-22T06:56:54.486Z,991.78
2017-01-22T06:58:03.171Z,991.8
2017-01-22T06:59:11.866Z,991.86
2017-01-22T07:00:20.551Z,991.9
2017-01-22T07:01:29.637Z,991.89
2017-01-22T07:02:38.326Z,991.94
2017-01-22T07:03:47.007Z,991.89
2017-01-22T07:04:55.692Z,991.87
2017-01-22T07:06:04.379Z,991.89
2017-01-22T07:07:13.064Z,991.92
2017-01-22T07:08:21.748Z,991.87
2017-01-22T07:09:30.430Z,991.86
2017-01-22T07:10:39.116Z,991.83
2017-01-22T07:11:47.800Z,991.81
2017-01-22T07:12:56.486Z,991.78
2017-01-22T07:14:05.178Z,991.81
2017-01-22T07:15:13.862Z,991.79
2017-01-22T07:16:22.565Z,991.81
2017-01-22T07:17:31.248Z,991.83
2017-01-22T07:18:39.940Z,991.87
2017-01-22T07:19:48.621Z,991.87
2017-01-22T07:20:57.305Z,991.86
2017-01-22T07:22:05.986Z,991.87
2017-01-22T07:23:14.672Z,991.89
2017-01-22T07:24:23.379Z,991.91
2017-01-22T07:25:32.065Z,991.94
2017-01-22T07:26:40.749Z,991.96
2017-01-22T07:27:49.436Z,991.98
2017-01-22T07:28:58.124Z,991.95
2017-01-22T07:30:06.804Z,991.88
2017-01-22T07:31:15.491Z,991.88
2017-01-22T07:32:24.184Z,991.91
2017-01-22T07:33:32.875Z,991.9
2017-01-22T07:34:41.566Z,991.94
2017-01-22T07:35:50.253Z,991.88
2017-01-22T07:36:58.981Z,991.83
2017-01-22T07:38:07.666Z,991.79
2017-01-22T07:39:16.355Z,991.72
2017-01-22T07:40:25.438Z,991.7
2017-01-22T07:41:34.125Z,991.63
2017-01-22T07:42:42.809Z,991.61
2017-01-22T07:43:51.490Z,991.65
2017-01-22T07:45:00.195Z,991.64
2017-01-22T07:46:08.885Z,991.51
2017-01-22T07:47:17.566Z,991.52
2017-01-22T07:48:26.249Z,991.5
2017-01-22T07:49:34.934Z,991.48
2017-01-22T07:50:43.621Z,991.5
2017-01-22T07:51:52.305Z,991.51
2017-01-22T07:53:00.992Z,991.55
2017-01-22T07:54:09.678Z,991.57
2017-01-22T07:55:18.363Z,991.58
2017-01-22T07:56:27.051Z,991.61
2017-01-22T07:57:35.802Z,991.6
2017-01-22T07:58:44.489Z,991.58
2017-01-22T07:59:53.178Z,991.66
2017-01-22T08:01:01.863Z,991.66
2017-01-22T08:02:10.550Z,991.68
2017-01-22T08:03:19.234Z,991.7
2017-01-22T08:04:27.941Z,991.74
2017-01-22T08:05:36.632Z,991.76
2017-01-22T08:06:45.346Z,991.77
2017-01-22T08:07:54.034Z,991.78
2017-01-22T08:09:02.725Z,991.8
2017-01-22T08:10:11.416Z,991.75
2017-01-22T08:11:20.103Z,991.75
2017-01-22T08:12:31.788Z,991.71
2017-01-22T08:13:40.476Z,991.78
2017-01-22T08:14:49.158Z,991.73
2017-01-22T08:15:57.845Z,991.72
2017-01-22T08:17:06.530Z,991.76
2017-01-22T08:18:15.563Z,991.75
2017-01-22T08:19:24.250Z,991.79
2017-01-22T08:20:32.933Z,991.81
2017-01-22T08:21:41.624Z,991.83
2017-01-22T08:22:50.311Z,991.8
2017-01-22T08:24:01.347Z,991.76
2017-01-22T08:25:10.040Z,991.78
2017-01-22T08:26:18.724Z,991.82
2017-01-22T08:27:27.407Z,991.79
2017-01-22T08:28:36.086Z,991.78
2017-01-22T08:29:45.126Z,991.76
2017-01-22T08:30:53.813Z,991.82
2017-01-22T08:32:02.506Z,991.78
2017-01-22T08:33:11.192Z,991.82
2017-01-22T08:34:19.906Z,991.78
2017-01-22T08:35:28.943Z,991.76
2017-01-22T08:36:37.629Z,991.75
2017-01-22T08:37:46.312Z,991.77
2017-01-22T08:38:55.001Z,991.77
2017-01-22T08:40:04.089Z,991.76
2017-01-22T08:41:13.147Z,991.7
2017-01-22T08:42:21.832Z,991.71
2017-01-22T08:43:30.523Z,991.73
2017-01-22T08:44:39.215Z,991.64
2017-01-22T08:45:47.903Z,991.68
2017-01-22T08:46:56.647Z,991.69
2017-01-22T08:48:05.338Z,991.65
2017-01-22T08:49:14.018Z,991.66
2017-01-22T08:50:22.703Z,991.6
2017-01-22T08:51:31.388Z,991.67
2017-01-22T08:52:40.118Z,991.69
2017-01-22T08:53:48.801Z,991.64
2017-01-22T08:54:57.490Z,991.64
2017-01-22T08:56:06.178Z,991.6
2017-01-22T08:57:14.860Z,991.64
2017-01-22T08:58:23.593Z,991.59
2017-01-22T08:59:32.679Z,991.57
2017-01-22T09:00:41.368Z,991.55
2017-01-22T09:01:50.054Z,991.57
2017-01-22T09:02:58.741Z,991.52
2017-01-22T09:04:07.476Z,991.57
2017-01-22T09:05:16.163Z,991.58
2017-01-22T09:06:24.848Z,991.55
2017-01-22T09:07:33.540Z,991.53
2017-01-22T09:08:42.266Z,991.55
2017-01-22T09:09:51.000Z,991.55
2017-01-22T09:10:59.690Z,991.56
2017-01-22T09:12:08.379Z,991.57
2017-01-22T09:13:17.062Z,991.55
2017-01-22T09:14:25.747Z,991.58
2017-01-22T09:15:35.282Z,991.59
2017-01-22T09:16:43.968Z,991.61
2017-01-22T09:17:52.648Z,991.6
2017-01-22T09:19:01.334Z,991.64
2017-01-22T09:20:10.021Z,991.7
2017-01-22T09:22:46.818Z,991.72
2017-01-22T09:23:55.506Z,991.7
2017-01-22T09:25:04.196Z,991.7
2017-01-22T09:26:13.281Z,991.66
2017-01-22T09:27:22.317Z,991.74
2017-01-22T09:28:31.002Z,991.7
2017-01-22T09:29:39.691Z,991.68
2017-01-22T09:30:48.377Z,991.62
2017-01-22T09:31:57.068Z,991.65
2017-01-22T09:33:05.804Z,991.61
2017-01-22T09:34:14.490Z,991.65
2017-01-22T09:35:23.178Z,991.63
2017-01-22T09:36:31.863Z,991.65
2017-01-22T09:37:40.556Z,991.67
2017-01-22T09:38:49.291Z,991.69
2017-01-22T09:39:57.978Z,991.68
2017-01-22T09:41:06.663Z,991.67
2017-01-22T09:42:15.347Z,991.73
2017-01-22T09:43:24.033Z,991.67
2017-01-22T09:44:32.769Z,991.67
2017-01-22T09:45:41.451Z,991.66
2017-01-22T09:46:50.139Z,991.7
2017-01-22T09:47:58.827Z,991.7
2017-01-22T09:49:07.513Z,991.7
2017-01-22T09:50:16.251Z,991.66
2017-01-22T09:51:24.936Z,991.67
2017-01-22T09:52:33.618Z,991.6
2017-01-22T09:53:42.303Z,991.52
2017-01-22T09:54:50.991Z,991.47
2017-01-22T09:55:59.723Z,991.4
2017-01-22T09:57:08.412Z,991.37
2017-01-22T09:58:17.097Z,991.35
2017-01-22T09:59:25.810Z,991.39
2017-01-22T10:00:34.499Z,991.35
2017-01-22T10:01:43.245Z,991.38
2017-01-22T10:02:51.926Z,991.4
2017-01-22T10:04:00.611Z,991.42
2017-01-22T10:05:09.296Z,991.48
2017-01-22T10:06:17.987Z,991.49
2017-01-22T10:07:26.729Z,991.47
2017-01-22T10:08:35.418Z,991.56
2017-01-22T10:09:44.105Z,991.55
2017-01-22T10:10:52.786Z,991.5
2017-01-22T10:12:01.482Z,991.58
2017-01-22T10:13:10.224Z,991.56
2017-01-22T10:14:18.919Z,991.54
2017-01-22T10:15:27.607Z,991.52
2017-01-22T10:16:36.301Z,991.47
2017-01-22T10:17:44.990Z,991.48
2017-01-22T10:18:53.724Z,991.39
2017-01-22T10:20:02.416Z,991.36
2017-01-22T10:21:11.106Z,991.37
2017-01-22T10:22:19.796Z,991.36
2017-01-22T10:23:28.479Z,991.39
2017-01-22T10:24:37.221Z,991.41
2017-01-22T10:25:45.905Z,991.36
2017-01-22T10:26:54.590Z,991.39
2017-01-22T10:28:03.279Z,991.41
2017-01-22T10:29:11.965Z,991.39
2017-01-22T10:30:20.700Z,991.47
2017-01-22T10:31:29.384Z,991.39
2017-01-22T10:32:38.076Z,991.4
2017-01-22T10:33:47.018Z,991.38
2017-01-22T10:34:55.718Z,991.33
2017-01-22T10:36:04.451Z,991.25
2017-01-22T10:37:13.133Z,991.2
2017-01-22T10:38:21.816Z,991.19
2017-01-22T10:39:30.503Z,991.16
2017-01-22T10:40:39.195Z,991.18
2017-01-22T10:41:48.332Z,991.13
2017-01-22T10:42:57.052Z,991.16
2017-01-22T10:44:05.736Z,991.15
2017-01-22T10:45:14.422Z,991.19
2017-01-22T10:46:23.109Z,991.19
2017-01-22T10:47:31.848Z,991.23
2017-01-22T10:48:40.532Z,991.27
2017-01-22T10:49:49.221Z,991.23
2017-01-22T10:50:57.906Z,991.2
2017-01-22T10:52:06.596Z,991.19
2017-01-22T10:53:15.340Z,991.14
2017-01-22T10:54:24.053Z,991.12
2017-01-22T10:55:32.763Z,991.08
2017-01-22T10:56:41.453Z,991.07
2017-01-22T10:57:50.142Z,991.01
2017-01-22T10:58:58.883Z,991.06
2017-01-22T11:00:07.602Z,991.06
2017-01-22T11:01:16.297Z,991.07
2017-01-22T11:02:24.986Z,991.02
2017-01-22T11:03:33.668Z,990.97
2017-01-22T11:04:42.422Z,990.94
2017-01-22T11:05:51.113Z,990.89
2017-01-22T11:06:59.803Z,990.92
2017-01-22T11:08:08.496Z,990.91
2017-01-22T11:09:17.182Z,990.85
2017-01-22T11:10:25.919Z,990.85
2017-01-22T11:11:34.628Z,990.81
2017-01-22T11:12:43.317Z,990.83
2017-01-22T11:13:52.007Z,990.8
2017-01-22T11:15:00.695Z,990.79
2017-01-22T11:16:09.441Z,990.77
2017-01-22T11:17:18.132Z,990.8
2017-01-22T11:18:26.817Z,990.86
2017-01-22T11:19:35.501Z,990.81
2017-01-22T11:20:44.189Z,990.79
2017-01-22T11:21:52.928Z,990.79
2017-01-22T11:23:01.642Z,990.81
2017-01-22T11:24:10.340Z,990.79
2017-01-22T11:25:19.026Z,990.77
2017-01-22T11:26:27.710Z,990.74
2017-01-22T11:27:36.448Z,990.78
2017-01-22T11:28:45.192Z,990.69
2017-01-22T11:29:53.882Z,990.67
2017-01-22T11:31:02.569Z,990.68
2017-01-22T11:32:11.261Z,990.69
2017-01-22T11:33:19.995Z,990.65
2017-01-22T11:34:28.683Z,990.64
2017-01-22T11:35:37.368Z,990.54
2017-01-22T11:36:46.054Z,990.55
2017-01-22T11:37:54.741Z,990.52
2017-01-22T11:39:03.477Z,990.51
2017-01-22T11:40:12.163Z,990.52
2017-01-22T11:41:20.874Z,990.55
2017-01-22T11:42:29.562Z,990.47
2017-01-22T11:43:38.262Z,990.47
2017-01-22T11:44:46.998Z,990.47
2017-01-22T11:45:55.697Z,990.44
2017-01-22T11:47:04.382Z,990.44
2017-01-22T11:48:13.066Z,990.42
2017-01-22T11:49:21.753Z,990.39
2017-01-22T11:50:30.491Z,990.34
2017-01-22T11:51:39.179Z,990.4
2017-01-22T11:52:47.885Z,990.35
2017-01-22T11:53:56.574Z,990.37
2017-01-22T11:55:05.260Z,990.29
2017-01-22T11:56:14.004Z,990.29
2017-01-22T11:57:22.694Z,990.25
2017-01-22T11:58:31.380Z,990.29
2017-01-22T11:59:40.067Z,990.24
2017-01-22T12:00:48.775Z,990.21
2017-01-22T12:01:57.514Z,990.26
2017-01-22T12:03:06.199Z,990.23
2017-01-22T12:04:14.885Z,990.22
2017-01-22T12:05:23.565Z,990.23
2017-01-22T12:06:32.250Z,990.14
2017-01-22T12:07:40.990Z,990.13
2017-01-22T12:08:49.687Z,990.13
2017-01-22T12:09:58.380Z,990.14
2017-01-22T12:11:07.066Z,990.17
2017-01-22T12:12:15.750Z,990.14
2017-01-22T12:13:24.489Z,990.17
2017-01-22T12:14:33.172Z,990.18
2017-01-22T12:15:41.854Z,990.15
2017-01-22T12:16:50.543Z,990.13
2017-01-22T12:17:59.232Z,990.08
2017-01-22T12:19:07.978Z,990.11
2017-01-22T12:20:16.662Z,990.02
2017-01-22T12:21:25.345Z,990
2017-01-22T12:22:34.033Z,989.99
2017-01-22T12:23:42.716Z,990.01
2017-01-22T12:24:51.457Z,989.95
2017-01-22T12:26:00.144Z,989.93
2017-01-22T12:27:08.833Z,989.98
2017-01-22T12:28:17.517Z,989.94
2017-01-22T12:29:26.206Z,989.92
2017-01-22T12:30:34.945Z,989.96
2017-01-22T12:31:43.635Z,989.93
2017-01-22T12:32:52.321Z,989.95
2017-01-22T12:34:01.010Z,989.95
2017-01-22T12:35:09.700Z,989.91
2017-01-22T12:36:18.442Z,989.9
2017-01-22T12:37:27.128Z,989.9
2017-01-22T12:38:35.815Z,989.9
2017-01-22T12:39:44.896Z,989.85
2017-01-22T12:40:53.595Z,989.83
2017-01-22T12:42:02.727Z,989.87
2017-01-22T12:43:11.413Z,989.83
2017-01-22T12:44:20.099Z,989.81
2017-01-22T12:45:28.787Z,989.83
2017-01-22T12:46:37.502Z,989.87
2017-01-22T12:47:46.238Z,989.82
2017-01-22T12:48:54.920Z,989.83
2017-01-22T12:50:03.633Z,989.83
2017-01-22T12:51:12.320Z,989.84
2017-01-22T12:52:21.006Z,989.77
2017-01-22T12:53:29.740Z,989.74
2017-01-22T12:54:38.425Z,989.74
2017-01-22T12:55:47.107Z,989.73
2017-01-22T12:56:55.797Z,989.68
2017-01-22T12:58:04.489Z,989.69
2017-01-22T12:59:13.228Z,989.66
2017-01-22T13:00:21.913Z,989.64
2017-01-22T13:01:30.615Z,989.63
2017-01-22T13:02:39.300Z,989.54
2017-01-22T13:03:47.984Z,989.49
2017-01-22T13:04:56.720Z,989.53
2017-01-22T13:06:05.407Z,989.48
2017-01-22T13:07:14.093Z,989.5
2017-01-22T13:08:22.784Z,989.53
2017-01-22T13:09:31.474Z,989.52
2017-01-22T13:10:40.234Z,989.52
2017-01-22T13:11:48.919Z,989.49
2017-01-22T13:12:57.603Z,989.5
2017-01-22T13:14:06.292Z,989.51
2017-01-22T13:15:14.976Z,989.44
2017-01-22T13:16:23.713Z,989.48
2017-01-22T13:17:32.401Z,989.43
2017-01-22T13:18:41.122Z,989.42
2017-01-22T13:19:49.808Z,989.39
2017-01-22T13:20:58.492Z,989.34
2017-01-22T13:22:07.233Z,989.35
2017-01-22T13:23:15.921Z,989.34
2017-01-22T13:24:24.611Z,989.31
2017-01-22T13:25:33.298Z,989.27
2017-01-22T13:26:41.987Z,989.24
2017-01-22T13:27:50.724Z,989.25
2017-01-22T13:28:59.417Z,989.2
2017-01-22T13:30:08.106Z,989.24
2017-01-22T13:31:16.795Z,989.2
2017-01-22T13:32:25.482Z,989.17
2017-01-22T13:33:34.222Z,989.22
2017-01-22T13:34:42.910Z,989.22
2017-01-22T13:35:51.600Z,989.23
2017-01-22T13:37:00.288Z,989.26
2017-01-22T13:38:08.978Z,989.25
2017-01-22T13:39:17.711Z,989.29
2017-01-22T13:40:26.401Z,989.23
2017-01-22T13:41:35.083Z,989.22
2017-01-22T13:42:43.770Z,989.17
2017-01-22T13:43:52.455Z,989.22
2017-01-22T13:45:01.191Z,989.21
2017-01-22T13:46:09.876Z,989.22
2017-01-22T13:47:18.586Z,989.21
2017-01-22T13:48:27.272Z,989.21
2017-01-22T13:49:35.962Z,989.16
2017-01-22T13:50:44.706Z,989.21
2017-01-22T13:51:53.394Z,989.13
2017-01-22T13:53:02.084Z,989.12
2017-01-22T13:54:10.771Z,989.16
2017-01-22T13:55:19.461Z,989.13
2017-01-22T13:56:28.196Z,989.19
2017-01-22T13:57:36.882Z,989.18
2017-01-22T13:58:45.567Z,989.19
2017-01-22T13:59:54.257Z,989.18
2017-01-22T14:01:02.943Z,989.16
2017-01-22T14:02:11.713Z,989.2
2017-01-22T14:03:20.401Z,989.18
2017-01-22T14:04:29.083Z,989.16
2017-01-22T14:05:37.769Z,989.14
2017-01-22T14:06:46.455Z,989.18
2017-01-22T14:07:55.188Z,989.21
2017-01-22T14:09:03.874Z,989.24
2017-01-22T14:10:12.561Z,989.27
2017-01-22T14:11:21.248Z,989.28
2017-01-22T14:12:29.937Z,989.24
2017-01-22T14:13:38.679Z,989.3
2017-01-22T14:14:47.374Z,989.28
2017-01-22T14:15:56.063Z,989.24
2017-01-22T14:17:04.750Z,989.24
2017-01-22T14:18:13.435Z,989.21
2017-01-22T14:19:22.173Z,989.17
2017-01-22T14:20:30.856Z,989.1
2017-01-22T14:21:39.551Z,989.08
2017-01-22T14:22:48.237Z,988.99
2017-01-22T14:23:56.931Z,988.89